createdAt,value
2019-05-13T00:01:15.999Z,7.70
2019-05-13T00:03:45.896Z,7.70
2019-05-13T00:06:15.417Z,7.70
2019-05-13T00:08:45.134Z,7.80
2019-05-13T00:11:14.729Z,7.60
2019-05-13T00:13:44.492Z,7.50
2019-05-13T00:16:14.469Z,7.50
2019-05-13T00:18:44.544Z,7.70
2019-05-13T00:21:14.204Z,7.60
2019-05-13T00:23:44.229Z,7.70
2019-05-13T00:26:14.228Z,7.50
2019-05-13T00:28:44.377Z,7.60
2019-05-13T00:31:14.247Z,7.60
2019-05-13T00:33:44.480Z,7.40
2019-05-13T00:36:14.368Z,7.30
2019-05-13T00:38:44.134Z,7.30
2019-05-13T00:41:14.231Z,7.30
2019-05-13T00:43:44.586Z,7.30
2019-05-13T00:46:14.430Z,7.30
2019-05-13T00:48:44.153Z,7.30
2019-05-13T00:51:14.236Z,7.40
2019-05-13T00:53:55.110Z,7.30
2019-05-13T00:56:24.686Z,7.20
2019-05-13T00:58:54.552Z,7.20
2019-05-13T01:01:24.355Z,7.20
2019-05-13T01:03:54.183Z,7.20
2019-05-13T01:06:24.114Z,7.20
2019-05-13T01:08:53.874Z,7.20
2019-05-13T01:11:23.751Z,7.20
2019-05-13T01:13:53.697Z,7.20
2019-05-13T01:16:23.565Z,7.20
2019-05-13T01:18:53.773Z,7.20
2019-05-13T01:21:24.037Z,7.30
2019-05-13T01:23:54.361Z,7.30
2019-05-13T01:26:24.238Z,7.40
2019-05-13T01:29:13.471Z,7.40
2019-05-13T01:31:43.525Z,7.30
2019-05-13T01:34:14.303Z,7.40
2019-05-13T01:36:44.639Z,7.40
2019-05-13T01:39:14.605Z,7.40
2019-05-13T01:42:03.703Z,7.40
2019-05-13T01:44:33.720Z,7.50
2019-05-13T01:47:04.460Z,7.30
2019-05-13T01:49:34.454Z,7.20
2019-05-13T01:52:04.152Z,7.30
2019-05-13T01:54:34.184Z,7.40
2019-05-13T01:57:04.380Z,7.40
2019-05-13T01:59:34.747Z,7.40
2019-05-13T02:02:04.967Z,7.40
2019-05-13T02:04:34.719Z,7.40
2019-05-13T02:07:04.598Z,7.50
2019-05-13T02:09:40.185Z,7.40
2019-05-13T02:12:09.786Z,7.50
2019-05-13T02:14:39.475Z,7.50
2019-05-13T02:17:09.259Z,7.50
2019-05-13T02:19:38.803Z,7.50
2019-05-13T02:22:08.579Z,7.70
2019-05-13T02:24:38.202Z,7.60
2019-05-13T02:27:07.918Z,7.60
2019-05-13T02:29:37.436Z,7.60
2019-05-13T02:32:07.070Z,7.60
2019-05-13T02:34:36.722Z,7.60
2019-05-13T02:37:06.306Z,7.40
2019-05-13T02:39:35.979Z,7.50
2019-05-13T02:42:05.507Z,7.40
2019-05-13T02:44:35.227Z,7.40
2019-05-13T02:47:04.858Z,7.30
2019-05-13T02:49:34.400Z,7.30
2019-05-13T02:52:04.040Z,7.40
2019-05-13T02:54:34.369Z,7.40
2019-05-13T02:57:04.434Z,7.40
2019-05-13T02:59:34.161Z,7.30
2019-05-13T03:02:04.276Z,7.30
2019-05-13T03:04:34.140Z,7.20
2019-05-13T03:07:03.928Z,7.20
2019-05-13T03:09:33.530Z,7.40
2019-05-13T03:12:04.286Z,7.40
2019-05-13T03:14:47.447Z,7.40
2019-05-13T03:17:37.909Z,7.40
2019-05-13T03:20:11.956Z,7.30
2019-05-13T03:22:39.116Z,7.40
2019-05-13T03:25:08.974Z,7.60
2019-05-13T03:27:38.584Z,7.50
2019-05-13T03:30:08.377Z,7.40
2019-05-13T03:32:50.469Z,7.50
2019-05-13T03:35:09.558Z,7.40
2019-05-13T03:37:42.395Z,7.50
2019-05-13T03:40:13.559Z,7.30
2019-05-13T03:42:45.396Z,7.10
2019-05-13T03:45:15.030Z,7.60
2019-05-13T03:47:46.284Z,8.70
2019-05-13T03:50:17.512Z,8.50
2019-05-13T03:52:47.116Z,8.30
2019-05-13T03:55:17.915Z,8.10
2019-05-13T03:57:47.752Z,7.90
2019-05-13T04:00:17.656Z,7.70
2019-05-13T04:02:47.586Z,7.60
2019-05-13T04:05:17.304Z,7.60
2019-05-13T04:07:54.762Z,7.60
2019-05-13T04:10:24.475Z,7.60
2019-05-13T04:12:54.348Z,7.70
2019-05-13T04:15:24.038Z,7.70
2019-05-13T04:17:53.935Z,7.70
2019-05-13T04:20:23.609Z,7.80
2019-05-13T04:22:53.601Z,7.70
2019-05-13T04:25:23.614Z,7.80
2019-05-13T04:27:53.896Z,7.60
2019-05-13T04:30:23.546Z,7.60
2019-05-13T04:32:53.750Z,7.60
2019-05-13T04:35:23.910Z,7.60
2019-05-13T04:37:53.475Z,7.70
2019-05-13T04:40:23.796Z,7.70
2019-05-13T04:42:54.059Z,7.90
2019-05-13T04:45:24.274Z,7.90
2019-05-13T04:47:54.335Z,7.90
2019-05-13T04:50:32.720Z,7.90
2019-05-13T04:53:07.225Z,7.90
2019-05-13T04:55:36.903Z,7.90
2019-05-13T04:58:06.653Z,8.00
2019-05-13T05:01:14.120Z,8.10
2019-05-13T05:03:53.589Z,8.10
2019-05-13T05:06:38.166Z,8.20
2019-05-13T05:10:10.195Z,8.10
2019-05-13T05:13:02.158Z,8.00
2019-05-13T05:16:13.330Z,8.10
2019-05-13T05:19:36.904Z,8.20
2019-05-13T05:22:22.675Z,8.20
2019-05-13T05:25:14.193Z,8.30
2019-05-13T05:28:13.579Z,8.20
2019-05-13T05:31:22.983Z,8.40
2019-05-13T05:34:41.641Z,8.40
2019-05-13T05:37:52.236Z,8.50
2019-05-13T05:40:31.296Z,8.60
2019-05-13T05:43:16.123Z,8.60
2019-05-13T05:45:45.785Z,10.00
2019-05-13T05:48:18.039Z,10.00
2019-05-13T05:50:51.580Z,9.90
2019-05-13T05:53:24.288Z,9.60
2019-05-13T05:55:56.921Z,9.50
2019-05-13T05:58:28.353Z,9.40
2019-05-13T06:00:58.474Z,9.40
2019-05-13T06:03:29.089Z,9.40
2019-05-13T06:05:59.018Z,9.40
2019-05-13T06:08:28.720Z,9.30
2019-05-13T06:10:58.447Z,9.30
2019-05-13T06:13:28.126Z,9.20
2019-05-13T06:15:57.824Z,9.10
2019-05-13T06:18:27.637Z,9.10
2019-05-13T06:20:57.144Z,9.20
2019-05-13T06:23:26.714Z,9.20
2019-05-13T06:25:56.258Z,9.30
2019-05-13T06:28:25.966Z,9.40
2019-05-13T06:30:55.718Z,9.50
2019-05-13T06:33:25.590Z,9.70
2019-05-13T06:35:55.835Z,10.00
2019-05-13T06:38:25.460Z,10.20
2019-05-13T06:41:03.363Z,10.50
2019-05-13T06:43:26.631Z,10.70
2019-05-13T06:45:56.431Z,11.00
2019-05-13T06:48:25.978Z,11.00
2019-05-13T06:50:55.624Z,11.30
2019-05-13T06:53:25.188Z,11.50
2019-05-13T06:55:54.819Z,11.90
2019-05-13T06:58:24.556Z,12.10
2019-05-13T07:00:57.522Z,12.30
2019-05-13T07:03:25.526Z,12.60
2019-05-13T07:05:55.241Z,12.70
2019-05-13T07:08:24.791Z,12.90
2019-05-13T07:10:54.427Z,13.20
2019-05-13T07:13:23.931Z,13.20
2019-05-13T07:15:53.577Z,13.40
2019-05-13T07:18:23.167Z,13.80
2019-05-13T07:20:53.206Z,14.30
2019-05-13T07:23:23.081Z,14.50
2019-05-13T07:25:52.902Z,14.60
2019-05-13T07:28:22.419Z,14.70
2019-05-13T07:30:52.169Z,14.70
2019-05-13T07:33:21.849Z,14.90
2019-05-13T07:35:58.240Z,15.10
2019-05-13T07:38:23.912Z,15.10
2019-05-13T07:41:02.335Z,15.20
2019-05-13T07:43:32.221Z,15.30
2019-05-13T07:46:02.232Z,14.90
2019-05-13T07:48:41.609Z,14.80
2019-05-13T07:51:11.945Z,14.90
2019-05-13T07:53:42.583Z,15.20
2019-05-13T07:56:12.634Z,15.40
2019-05-13T07:58:42.394Z,15.80
2019-05-13T08:01:12.381Z,16.30
2019-05-13T08:03:42.326Z,16.60
2019-05-13T08:06:12.019Z,16.80
2019-05-13T08:08:41.869Z,17.40
2019-05-13T08:11:12.838Z,17.90
2019-05-13T08:13:44.722Z,18.30
2019-05-13T08:16:13.916Z,18.70
2019-05-13T08:18:43.877Z,19.20
2019-05-13T08:21:13.597Z,19.60
2019-05-13T08:23:43.138Z,20.00
2019-05-13T08:26:12.681Z,20.20
2019-05-13T08:28:56.978Z,20.60
2019-05-13T08:31:32.456Z,20.60
2019-05-13T08:34:02.616Z,21.00
2019-05-13T08:36:32.817Z,21.40
2019-05-13T08:39:02.943Z,21.70
2019-05-13T08:41:32.724Z,21.90
2019-05-13T08:44:02.436Z,21.90
2019-05-13T08:46:32.422Z,21.50
2019-05-13T08:49:03.763Z,20.40
2019-05-13T08:51:34.817Z,20.20
2019-05-13T08:54:04.719Z,19.90
2019-05-13T08:56:34.620Z,19.20
2019-05-13T08:59:04.282Z,18.70
2019-05-13T09:01:34.266Z,18.10
2019-05-13T09:04:03.937Z,17.70
2019-05-13T09:06:34.091Z,17.60
2019-05-13T09:09:04.463Z,17.30
2019-05-13T09:11:34.176Z,17.20
2019-05-13T09:14:04.630Z,16.80
2019-05-13T09:16:34.432Z,16.50
2019-05-13T09:19:04.275Z,16.50
2019-05-13T09:21:33.923Z,16.20
2019-05-13T09:24:19.347Z,16.00
2019-05-13T09:26:35.302Z,15.90
2019-05-13T09:29:04.875Z,16.10
2019-05-13T09:31:34.731Z,16.30
2019-05-13T09:34:04.310Z,16.40
2019-05-13T09:36:34.086Z,16.80
2019-05-13T09:39:05.307Z,17.40
2019-05-13T09:41:40.734Z,17.70
2019-05-13T09:44:06.405Z,18.30
2019-05-13T09:46:36.192Z,18.60
2019-05-13T09:49:16.207Z,19.30
2019-05-13T09:51:37.380Z,19.90
2019-05-13T09:54:07.165Z,20.10
2019-05-13T09:56:36.821Z,20.10
2019-05-13T09:59:06.706Z,20.30
2019-05-13T10:01:36.271Z,20.20
2019-05-13T10:04:06.122Z,20.70
2019-05-13T10:06:35.862Z,20.60
2019-05-13T10:09:07.441Z,20.80
2019-05-13T10:11:36.943Z,20.80
2019-05-13T10:14:06.581Z,20.90
2019-05-13T10:16:36.177Z,20.20
2019-05-13T10:19:05.803Z,19.80
2019-05-13T10:21:37.225Z,19.70
2019-05-13T10:24:07.369Z,20.00
2019-05-13T10:26:37.694Z,19.90
2019-05-13T10:29:07.431Z,19.60
2019-05-13T10:31:37.034Z,19.80
2019-05-13T10:34:06.829Z,19.70
2019-05-13T10:36:36.597Z,19.30
2019-05-13T10:39:08.179Z,18.80
2019-05-13T10:41:37.911Z,18.50
2019-05-13T10:44:07.613Z,18.40
2019-05-13T10:46:37.260Z,18.60
2019-05-13T10:49:06.804Z,18.80
2019-05-13T10:51:36.441Z,19.10
2019-05-13T10:54:06.383Z,19.30
2019-05-13T10:56:36.177Z,19.60
2019-05-13T10:59:05.731Z,19.50
2019-05-13T11:01:35.515Z,19.20
2019-05-13T11:04:05.063Z,18.90
2019-05-13T11:06:34.804Z,19.10
2019-05-13T11:09:06.745Z,19.30
2019-05-13T11:11:36.515Z,19.60
2019-05-13T11:14:10.995Z,19.70
2019-05-13T11:16:37.717Z,19.70
2019-05-13T11:19:07.561Z,19.40
2019-05-13T11:21:37.238Z,19.40
2019-05-13T11:24:06.831Z,19.20
2019-05-13T11:26:36.753Z,18.90
2019-05-13T11:29:06.632Z,18.70
2019-05-13T11:31:36.282Z,18.50
2019-05-13T11:34:05.943Z,18.20
2019-05-13T11:36:35.592Z,18.00
2019-05-13T11:39:07.163Z,17.90
2019-05-13T11:41:36.951Z,17.80
2019-05-13T11:44:14.227Z,17.90
2019-05-13T11:46:38.204Z,18.10
2019-05-13T11:49:07.918Z,17.70
2019-05-13T11:51:37.515Z,17.40
2019-05-13T11:54:07.227Z,17.40
2019-05-13T11:56:48.160Z,17.70
2019-05-13T11:59:13.350Z,18.00
2019-05-13T12:01:42.677Z,17.70
2019-05-13T12:04:34.479Z,17.50
2019-05-13T12:07:03.600Z,17.70
2019-05-13T12:09:33.442Z,18.10
2019-05-13T12:12:03.535Z,18.60
2019-05-13T12:14:44.273Z,18.70
2019-05-13T12:17:04.609Z,18.80
2019-05-13T12:19:34.176Z,19.30
2019-05-13T12:22:03.841Z,19.60
2019-05-13T12:24:33.754Z,19.80
2019-05-13T12:27:03.913Z,19.80
2019-05-13T12:29:33.828Z,19.70
2019-05-13T12:32:03.562Z,19.00
2019-05-13T12:34:40.471Z,18.70
2019-05-13T12:37:04.746Z,18.40
2019-05-13T12:39:34.390Z,18.10
2019-05-13T12:42:04.103Z,17.80
2019-05-13T12:44:34.038Z,17.60
2019-05-13T12:47:03.824Z,17.50
2019-05-13T12:49:36.497Z,17.30
2019-05-13T12:52:04.947Z,17.00
2019-05-13T12:54:34.782Z,16.80
2019-05-13T12:57:11.705Z,16.70
2019-05-13T12:59:35.864Z,16.80
2019-05-13T13:02:05.434Z,16.90
2019-05-13T13:04:35.285Z,17.00
2019-05-13T13:07:24.124Z,17.00
2019-05-13T13:09:54.104Z,17.00
2019-05-13T13:12:33.877Z,16.90
2019-05-13T13:14:55.550Z,16.90
2019-05-13T13:17:25.498Z,16.70
2019-05-13T13:20:04.568Z,16.50
2019-05-13T13:22:26.322Z,16.40
2019-05-13T13:24:57.541Z,16.10
2019-05-13T13:27:57.836Z,15.90
2019-05-13T13:30:03.282Z,15.80
2019-05-13T13:32:33.082Z,15.60
2019-05-13T13:35:03.694Z,15.50
2019-05-13T13:37:34.937Z,15.50
2019-05-13T13:40:03.786Z,15.40
2019-05-13T13:42:33.456Z,15.30
2019-05-13T13:45:06.165Z,15.20
2019-05-13T13:47:34.690Z,15.30
2019-05-13T13:50:05.100Z,15.30
2019-05-13T13:52:34.598Z,15.30
2019-05-13T13:55:08.814Z,15.30
2019-05-13T13:57:35.656Z,15.30
2019-05-13T14:00:34.365Z,15.50
2019-05-13T14:02:37.410Z,15.50
2019-05-13T14:05:07.632Z,15.60
2019-05-13T14:07:38.924Z,15.70
2019-05-13T14:10:11.487Z,15.90
2019-05-13T14:12:41.664Z,16.10
2019-05-13T14:15:11.578Z,16.30
2019-05-13T14:17:41.840Z,16.50
2019-05-13T14:20:12.049Z,16.50
2019-05-13T14:22:42.039Z,16.60
2019-05-13T14:25:12.153Z,16.60
2019-05-13T14:27:42.121Z,16.50
2019-05-13T14:30:11.921Z,16.40
2019-05-13T14:33:02.323Z,16.30
2019-05-13T14:35:31.843Z,16.20
2019-05-13T14:38:02.472Z,16.20
2019-05-13T14:40:32.337Z,16.20
2019-05-13T14:43:03.655Z,16.20
2019-05-13T14:45:33.262Z,16.20
2019-05-13T14:48:02.849Z,16.10
2019-05-13T14:50:32.483Z,16.20
2019-05-13T14:53:02.792Z,16.30
2019-05-13T14:55:32.393Z,16.40
2019-05-13T14:58:02.597Z,16.30
2019-05-13T15:00:32.857Z,16.40
2019-05-13T15:03:03.147Z,16.30
2019-05-13T15:05:32.828Z,16.40
2019-05-13T15:08:02.503Z,16.40
2019-05-13T15:10:32.138Z,16.30
2019-05-13T15:13:02.985Z,16.20
2019-05-13T15:15:32.956Z,16.20
2019-05-13T15:18:02.811Z,16.00
2019-05-13T15:20:33.213Z,15.80
2019-05-13T15:23:03.074Z,15.60
2019-05-13T15:25:33.103Z,15.40
2019-05-13T15:28:03.016Z,15.40
2019-05-13T15:30:51.804Z,15.30
2019-05-13T15:33:21.605Z,15.20
2019-05-13T15:35:52.062Z,15.20
2019-05-13T15:38:21.808Z,15.10
2019-05-13T15:40:52.162Z,15.00
2019-05-13T15:43:22.361Z,15.00
2019-05-13T15:45:52.032Z,15.00
2019-05-13T15:48:22.329Z,15.00
2019-05-13T15:50:52.451Z,14.90
2019-05-13T15:53:22.084Z,14.90
2019-05-13T15:55:51.865Z,14.80
2019-05-13T15:58:37.724Z,14.90
2019-05-13T16:00:52.900Z,14.90
2019-05-13T16:03:22.639Z,15.00
2019-05-13T16:05:52.416Z,14.90
2019-05-13T16:08:22.234Z,14.90
2019-05-13T16:10:53.499Z,14.80
2019-05-13T16:13:23.527Z,14.80
2019-05-13T16:15:53.124Z,14.70
2019-05-13T16:18:23.607Z,14.80
2019-05-13T16:20:53.271Z,14.80
2019-05-13T16:23:22.984Z,14.80
2019-05-13T16:25:52.740Z,14.70
2019-05-13T16:28:41.931Z,14.60
2019-05-13T16:31:12.108Z,14.40
2019-05-13T16:33:41.901Z,14.40
2019-05-13T16:36:12.669Z,14.30
2019-05-13T16:38:42.627Z,14.10
2019-05-13T16:41:12.689Z,14.10
2019-05-13T16:43:42.829Z,14.00
2019-05-13T16:46:12.522Z,14.00
2019-05-13T16:48:42.284Z,13.90
2019-05-13T16:51:12.726Z,13.80
2019-05-13T16:53:42.635Z,13.90
2019-05-13T16:56:25.844Z,13.90
2019-05-13T16:58:43.527Z,13.80
2019-05-13T17:01:13.299Z,13.90
2019-05-13T17:03:42.927Z,13.80
2019-05-13T17:06:12.848Z,13.70
2019-05-13T17:08:42.784Z,13.60
2019-05-13T17:11:12.448Z,13.50
2019-05-13T17:13:42.434Z,13.40
2019-05-13T17:16:12.507Z,13.30
2019-05-13T17:18:42.128Z,13.30
2019-05-13T17:21:11.799Z,13.20
2019-05-13T17:23:41.970Z,13.10
2019-05-13T17:26:11.800Z,13.00
2019-05-13T17:28:41.852Z,12.80
2019-05-13T17:31:11.710Z,12.70
2019-05-13T17:33:41.471Z,12.70
2019-05-13T17:36:12.322Z,12.50
2019-05-13T17:39:01.842Z,12.40
2019-05-13T17:41:32.123Z,12.40
2019-05-13T17:44:02.438Z,12.30
2019-05-13T17:46:32.727Z,12.30
2019-05-13T17:49:02.310Z,12.30
2019-05-13T17:51:31.983Z,12.20
2019-05-13T17:54:01.598Z,12.30
2019-05-13T17:56:32.304Z,12.20
2019-05-13T17:59:02.063Z,12.10
2019-05-13T18:01:31.791Z,12.00
2019-05-13T18:04:02.407Z,11.90
2019-05-13T18:06:52.285Z,11.90
2019-05-13T18:09:22.335Z,11.80
2019-05-13T18:11:52.840Z,11.80
2019-05-13T18:14:22.637Z,11.60
2019-05-13T18:16:52.209Z,11.60
2019-05-13T18:19:22.229Z,11.60
2019-05-13T18:21:52.366Z,11.50
2019-05-13T18:24:21.946Z,11.40
2019-05-13T18:26:52.133Z,11.30
2019-05-13T18:29:22.687Z,11.30
2019-05-13T18:31:52.603Z,11.40
2019-05-13T18:34:22.402Z,11.30
2019-05-13T18:36:52.103Z,11.20
2019-05-13T18:39:21.750Z,11.20
2019-05-13T18:41:51.427Z,11.20
2019-05-13T18:44:20.931Z,11.20
2019-05-13T18:46:52.336Z,11.10
2019-05-13T18:49:42.341Z,11.10
2019-05-13T18:52:12.401Z,11.10
2019-05-13T18:54:42.303Z,11.00
2019-05-13T18:57:12.312Z,11.00
2019-05-13T18:59:42.700Z,11.00
2019-05-13T19:02:12.408Z,11.00
2019-05-13T19:04:42.326Z,11.00
2019-05-13T19:07:12.083Z,11.00
2019-05-13T19:09:41.905Z,10.90
2019-05-13T19:12:11.821Z,10.90
2019-05-13T19:14:41.575Z,10.90
2019-05-13T19:17:12.420Z,11.00
2019-05-13T19:19:42.298Z,10.90
2019-05-13T19:22:12.363Z,10.90
2019-05-13T19:24:42.126Z,10.80
2019-05-13T19:27:12.166Z,10.90
2019-05-13T19:29:42.640Z,10.90
2019-05-13T19:32:12.783Z,11.00
2019-05-13T19:34:42.562Z,10.90
2019-05-13T19:37:31.701Z,10.80
2019-05-13T19:40:01.663Z,10.80
2019-05-13T19:42:31.480Z,10.70
2019-05-13T19:45:02.028Z,10.80
2019-05-13T19:47:31.828Z,10.80
2019-05-13T19:50:02.410Z,10.80
2019-05-13T19:52:32.165Z,10.80
2019-05-13T19:55:01.929Z,10.80
2019-05-13T19:57:31.845Z,10.80
2019-05-13T20:00:02.078Z,10.90
2019-05-13T20:02:31.795Z,10.80
2019-05-13T20:05:01.524Z,10.80
2019-05-13T20:07:31.814Z,10.70
2019-05-13T20:10:02.772Z,10.80
2019-05-13T20:12:32.705Z,10.60
2019-05-13T20:15:02.483Z,10.50
2019-05-13T20:17:32.263Z,10.60
2019-05-13T20:20:02.255Z,10.60
2019-05-13T20:22:31.873Z,10.70
2019-05-13T20:25:01.544Z,10.70
2019-05-13T20:27:31.684Z,10.50
2019-05-13T20:30:01.767Z,10.20
2019-05-13T20:32:31.459Z,10.20
2019-05-13T20:35:21.901Z,10.20
2019-05-13T20:38:11.571Z,10.30
2019-05-13T20:40:41.599Z,10.30
2019-05-13T20:43:11.973Z,10.30
2019-05-13T20:45:42.121Z,10.20
2019-05-13T20:48:31.989Z,10.30
2019-05-13T20:51:02.602Z,10.30
2019-05-13T20:53:32.362Z,10.30
2019-05-13T20:56:02.130Z,10.30
2019-05-13T20:58:32.054Z,10.40
2019-05-13T21:01:02.525Z,10.30
2019-05-13T21:03:32.321Z,10.40
2019-05-13T21:06:01.871Z,10.40
2019-05-13T21:08:32.115Z,10.40
2019-05-13T21:11:02.432Z,10.30
2019-05-13T21:13:32.313Z,10.20
2019-05-13T21:16:02.490Z,10.30
2019-05-13T21:18:32.423Z,10.20
2019-05-13T21:21:02.108Z,10.20
2019-05-13T21:23:52.205Z,10.20
2019-05-13T21:26:22.548Z,10.30
2019-05-13T21:28:52.391Z,10.30
2019-05-13T21:31:22.056Z,10.30
2019-05-13T21:33:51.789Z,10.30
2019-05-13T21:36:21.763Z,10.20
2019-05-13T21:38:51.513Z,10.20
2019-05-13T21:41:21.297Z,10.10
2019-05-13T21:43:52.034Z,10.00
2019-05-13T21:46:21.864Z,10.00
2019-05-13T21:49:11.881Z,9.90
2019-05-13T21:51:41.989Z,9.90
2019-05-13T21:54:12.020Z,9.70
2019-05-13T21:56:42.688Z,9.70
2019-05-13T21:59:12.523Z,9.70
2019-05-13T22:01:42.452Z,9.60
2019-05-13T22:04:12.552Z,9.50
2019-05-13T22:06:42.228Z,9.40
2019-05-13T22:09:12.427Z,9.40
2019-05-13T22:11:42.219Z,9.40
2019-05-13T22:14:11.879Z,9.30
2019-05-13T22:16:41.639Z,9.20
2019-05-13T22:19:12.315Z,9.10
2019-05-13T22:21:42.506Z,9.00
2019-05-13T22:24:12.465Z,9.00
2019-05-13T22:26:42.335Z,8.90
2019-05-13T22:29:11.866Z,8.80
2019-05-13T22:31:42.037Z,8.60
2019-05-13T22:34:12.220Z,8.50
2019-05-13T22:36:42.383Z,8.40
2019-05-13T22:39:12.162Z,8.50
2019-05-13T22:41:42.246Z,8.50
2019-05-13T22:44:12.162Z,8.30
2019-05-13T22:46:41.707Z,8.30
2019-05-13T22:49:11.744Z,8.20
2019-05-13T22:52:00.476Z,8.20
2019-05-13T22:54:31.803Z,8.20
2019-05-13T22:57:01.492Z,8.10
2019-05-13T22:59:32.203Z,8.10
2019-05-13T23:02:01.886Z,8.00
2019-05-13T23:04:31.861Z,8.00
2019-05-13T23:07:01.480Z,7.90
2019-05-13T23:09:32.304Z,8.00
2019-05-13T23:12:02.093Z,7.90
2019-05-13T23:14:31.641Z,7.80
2019-05-13T23:17:02.247Z,7.80
2019-05-13T23:19:32.503Z,7.70
2019-05-13T23:22:02.302Z,7.60
2019-05-13T23:24:31.849Z,7.40
2019-05-13T23:27:02.277Z,7.40
2019-05-13T23:29:32.244Z,7.50
2019-05-13T23:32:01.840Z,7.20
2019-05-13T23:34:31.987Z,7.00
2019-05-13T23:37:01.595Z,7.00
2019-05-13T23:39:32.167Z,7.00
2019-05-13T23:42:02.067Z,6.80
2019-05-13T23:44:32.274Z,6.60
2019-05-13T23:47:01.992Z,6.70
2019-05-13T23:49:31.839Z,6.50
2019-05-13T23:52:02.542Z,6.70
2019-05-13T23:54:32.562Z,6.60
2019-05-13T23:57:02.201Z,6.60
2019-05-13T23:59:31.830Z,6.60
